createdAt,value
2019-01-11T00:00:05.564Z,86.10
2019-01-11T00:01:05.639Z,86.10
2019-01-11T00:02:05.751Z,86.10
2019-01-11T00:03:05.820Z,86.20
2019-01-11T00:04:05.947Z,86.20
2019-01-11T00:05:05.085Z,86.10
2019-01-11T00:06:07.865Z,86.20
2019-01-11T00:07:06.023Z,86.20
2019-01-11T00:08:05.259Z,86.10
2019-01-11T00:09:07.885Z,86.20
2019-01-11T00:10:05.837Z,86.20
2019-01-11T00:11:05.948Z,86.20
2019-01-11T00:12:05.031Z,86.20
2019-01-11T00:13:05.114Z,86.20
2019-01-11T00:14:07.826Z,86.20
2019-01-11T00:15:10.895Z,86.20
2019-01-11T00:16:05.956Z,86.20
2019-01-11T00:17:07.654Z,86.20
2019-01-11T00:18:08.283Z,86.20
2019-01-11T00:19:07.652Z,86.20
2019-01-11T00:20:05.893Z,86.10
2019-01-11T00:21:07.509Z,86.20
2019-01-11T00:22:05.590Z,86.20
2019-01-11T00:23:05.686Z,86.20
2019-01-11T00:24:05.809Z,86.10
2019-01-11T00:25:08.406Z,86.10
2019-01-11T00:26:05.381Z,86.10
2019-01-11T00:27:08.027Z,86.10
2019-01-11T00:28:05.964Z,86.20
2019-01-11T00:29:05.083Z,86.10
2019-01-11T00:30:08.338Z,86.10
2019-01-11T00:31:10.828Z,86.20
2019-01-11T00:32:08.319Z,86.10
2019-01-11T00:33:07.788Z,86.10
2019-01-11T00:34:08.265Z,86.20
2019-01-11T00:35:07.908Z,86.20
2019-01-11T00:36:08.413Z,86.20
2019-01-11T00:37:08.004Z,86.20
2019-01-11T00:38:05.967Z,86.20
2019-01-11T00:39:05.060Z,86.20
2019-01-11T00:40:05.261Z,86.20
2019-01-11T00:41:08.065Z,86.10
2019-01-11T00:42:05.157Z,86.10
2019-01-11T00:43:05.263Z,86.10
2019-01-11T00:44:05.366Z,86.10
2019-01-11T00:45:05.393Z,86.20
2019-01-11T00:46:05.441Z,86.10
2019-01-11T00:47:08.037Z,86.10
2019-01-11T00:48:06.026Z,86.20
2019-01-11T00:49:14.001Z,86.10
2019-01-11T00:50:05.019Z,86.10
2019-01-11T00:51:05.137Z,86.10
2019-01-11T00:52:05.345Z,86.10
2019-01-11T00:53:08.106Z,86.00
2019-01-11T00:54:07.654Z,86.10
2019-01-11T00:55:06.418Z,86.10
2019-01-11T00:56:05.464Z,86.10
2019-01-11T00:57:07.999Z,86.30
2019-01-11T00:58:08.402Z,86.10
2019-01-11T00:59:05.547Z,86.20
2019-01-11T01:00:08.238Z,86.20
2019-01-11T01:01:05.398Z,86.30
2019-01-11T01:02:08.023Z,86.10
2019-01-11T01:03:05.054Z,86.20
2019-01-11T01:04:05.265Z,86.10
2019-01-11T01:05:07.930Z,86.10
2019-01-11T01:06:08.666Z,86.10
2019-01-11T01:07:08.117Z,86.10
2019-01-11T01:08:05.171Z,86.10
2019-01-11T01:09:07.947Z,86.10
2019-01-11T01:10:08.435Z,86.10
2019-01-11T01:11:05.409Z,86.10
2019-01-11T01:12:05.462Z,86.10
2019-01-11T01:13:05.539Z,86.10
2019-01-11T01:14:05.743Z,86.10
2019-01-11T01:15:11.063Z,86.20
2019-01-11T01:16:05.059Z,86.20
2019-01-11T01:17:05.243Z,86.10
2019-01-11T01:18:12.835Z,86.20
2019-01-11T01:19:05.872Z,86.20
2019-01-11T01:20:08.507Z,86.30
2019-01-11T01:21:05.477Z,86.30
2019-01-11T01:22:05.639Z,86.30
2019-01-11T01:23:05.867Z,86.30
2019-01-11T01:24:04.992Z,86.30
2019-01-11T01:25:05.100Z,86.30
2019-01-11T01:26:05.161Z,86.30
2019-01-11T01:27:07.726Z,86.30
2019-01-11T01:28:05.870Z,86.30
2019-01-11T01:29:11.181Z,86.40
2019-01-11T01:30:05.249Z,86.40
2019-01-11T01:31:05.331Z,86.40
2019-01-11T01:32:08.744Z,86.50
2019-01-11T01:33:05.938Z,86.50
2019-01-11T01:34:07.615Z,86.50
2019-01-11T01:35:05.618Z,86.40
2019-01-11T01:36:08.377Z,86.40
2019-01-11T01:37:05.400Z,86.40
2019-01-11T01:38:05.494Z,86.40
2019-01-11T01:39:05.823Z,86.50
2019-01-11T01:40:06.104Z,86.40
2019-01-11T01:41:07.759Z,86.40
2019-01-11T01:42:10.912Z,86.40
2019-01-11T01:43:13.508Z,86.50
2019-01-11T01:44:07.919Z,86.40
2019-01-11T01:45:05.889Z,86.40
2019-01-11T01:46:05.981Z,86.40
2019-01-11T01:47:07.625Z,86.40
2019-01-11T01:48:08.262Z,86.40
2019-01-11T01:49:10.425Z,86.50
2019-01-11T01:50:10.725Z,86.40
2019-01-11T01:51:05.751Z,86.40
2019-01-11T01:52:10.928Z,86.40
2019-01-11T01:53:05.833Z,86.40
2019-01-11T01:54:08.470Z,86.40
2019-01-11T01:55:05.583Z,86.40
2019-01-11T01:56:08.426Z,86.40
2019-01-11T01:57:05.529Z,86.40
2019-01-11T01:58:08.150Z,86.40
2019-01-11T01:59:07.564Z,86.60
2019-01-11T02:00:05.522Z,86.60
2019-01-11T02:01:05.621Z,86.60
2019-01-11T02:02:05.680Z,86.60
2019-01-11T02:03:08.794Z,86.60
2019-01-11T02:04:08.317Z,86.60
2019-01-11T02:05:05.321Z,86.60
2019-01-11T02:06:05.779Z,86.60
2019-01-11T02:07:06.088Z,86.60
2019-01-11T02:08:05.235Z,86.60
2019-01-11T02:09:08.177Z,86.60
2019-01-11T02:10:05.163Z,86.60
2019-01-11T02:11:10.235Z,86.60
2019-01-11T02:12:05.165Z,86.60
2019-01-11T02:13:07.928Z,86.60
2019-01-11T02:14:05.915Z,86.60
2019-01-11T02:15:06.017Z,86.70
2019-01-11T02:16:05.093Z,86.70
2019-01-11T02:17:07.800Z,86.60
2019-01-11T02:18:05.804Z,86.70
2019-01-11T02:19:05.898Z,86.60
2019-01-11T02:20:06.015Z,86.70
2019-01-11T02:21:07.602Z,86.60
2019-01-11T02:22:08.275Z,86.60
2019-01-11T02:23:05.392Z,86.60
2019-01-11T02:24:05.459Z,86.60
2019-01-11T02:25:08.259Z,86.70
2019-01-11T02:26:07.867Z,86.60
2019-01-11T02:27:08.345Z,86.70
2019-01-11T02:28:05.322Z,86.70
2019-01-11T02:29:07.914Z,86.70
2019-01-11T02:30:05.880Z,86.70
2019-01-11T02:31:06.050Z,86.70
2019-01-11T02:32:05.199Z,86.70
2019-01-11T02:33:07.746Z,86.70
2019-01-11T02:34:05.781Z,86.70
2019-01-11T02:35:05.862Z,86.70
2019-01-11T02:36:05.943Z,86.70
2019-01-11T02:37:07.718Z,86.70
2019-01-11T02:38:05.664Z,86.70
2019-01-11T02:39:05.962Z,86.70
2019-01-11T02:40:07.539Z,86.70
2019-01-11T02:41:05.538Z,86.70
2019-01-11T02:42:08.245Z,86.60
2019-01-11T02:43:07.783Z,86.60
2019-01-11T02:44:05.693Z,86.70
2019-01-11T02:45:05.350Z,86.60
2019-01-11T02:46:05.505Z,86.70
2019-01-11T02:47:05.636Z,86.70
2019-01-11T02:48:08.204Z,86.70
2019-01-11T02:49:05.331Z,86.80
2019-01-11T02:50:05.547Z,86.70
2019-01-11T02:51:08.308Z,86.70
2019-01-11T02:52:05.249Z,86.80
2019-01-11T02:53:05.297Z,86.80
2019-01-11T02:54:05.365Z,86.70
2019-01-11T02:55:05.440Z,86.80
2019-01-11T02:56:08.106Z,86.80
2019-01-11T02:57:05.226Z,86.80
2019-01-11T02:58:05.388Z,86.80
2019-01-11T02:59:05.449Z,86.80
2019-01-11T03:00:08.089Z,86.90
2019-01-11T03:01:05.117Z,86.90
2019-01-11T03:02:05.210Z,86.90
2019-01-11T03:03:05.323Z,86.90
2019-01-11T03:04:05.574Z,86.90
2019-01-11T03:05:05.997Z,86.90
2019-01-11T03:06:07.549Z,87.00
2019-01-11T03:07:07.995Z,87.00
2019-01-11T03:08:06.030Z,87.00
2019-01-11T03:09:07.674Z,87.00
2019-01-11T03:10:05.754Z,87.00
2019-01-11T03:11:08.352Z,87.00
2019-01-11T03:12:05.360Z,87.00
2019-01-11T03:13:07.967Z,87.10
2019-01-11T03:14:06.008Z,87.10
2019-01-11T03:15:07.704Z,87.10
2019-01-11T03:16:05.684Z,87.10
2019-01-11T03:17:05.804Z,87.10
2019-01-11T03:18:05.998Z,87.10
2019-01-11T03:19:12.719Z,87.10
2019-01-11T03:20:08.226Z,87.00
2019-01-11T03:21:07.704Z,87.00
2019-01-11T03:22:08.232Z,87.00
2019-01-11T03:23:05.170Z,87.00
2019-01-11T03:24:12.801Z,87.00
2019-01-11T03:25:05.763Z,87.00
2019-01-11T03:26:08.340Z,87.00
2019-01-11T03:27:05.254Z,87.00
2019-01-11T03:28:05.297Z,87.00
2019-01-11T03:29:08.004Z,87.00
2019-01-11T03:30:08.621Z,86.90
2019-01-11T03:31:08.256Z,87.00
2019-01-11T03:32:05.175Z,87.00
2019-01-11T03:33:07.896Z,87.10
2019-01-11T03:34:08.636Z,87.00
2019-01-11T03:35:05.636Z,87.00
2019-01-11T03:36:08.292Z,87.00
2019-01-11T03:37:07.788Z,87.00
2019-01-11T03:38:05.925Z,87.00
2019-01-11T03:39:05.067Z,87.10
2019-01-11T03:40:07.762Z,87.10
2019-01-11T03:41:08.231Z,87.00
2019-01-11T03:42:07.781Z,87.10
2019-01-11T03:43:08.307Z,87.10
2019-01-11T03:44:05.234Z,87.10
2019-01-11T03:45:07.858Z,87.00
2019-01-11T03:46:13.380Z,87.10
2019-01-11T03:47:05.355Z,87.10
2019-01-11T03:48:05.437Z,87.00
2019-01-11T03:49:05.580Z,87.10
2019-01-11T03:50:06.012Z,87.10
2019-01-11T03:51:05.115Z,87.10
2019-01-11T03:52:05.379Z,87.00
2019-01-11T03:53:10.710Z,87.10
2019-01-11T03:54:05.631Z,87.10
2019-01-11T03:55:08.293Z,87.10
2019-01-11T03:56:05.442Z,87.10
2019-01-11T03:57:08.110Z,87.10
2019-01-11T03:58:05.164Z,87.10
2019-01-11T03:59:05.394Z,87.10
2019-01-11T04:00:08.071Z,87.10
2019-01-11T04:01:05.202Z,87.10
2019-01-11T04:02:07.814Z,87.10
2019-01-11T04:03:05.825Z,87.10
2019-01-11T04:04:06.010Z,87.10
2019-01-11T04:05:05.084Z,87.10
2019-01-11T04:06:05.238Z,87.10
2019-01-11T04:07:05.545Z,87.20
2019-01-11T04:08:05.706Z,87.10
2019-01-11T04:09:05.772Z,87.10
2019-01-11T04:10:05.957Z,87.10
2019-01-11T04:11:07.593Z,87.20
2019-01-11T04:12:08.233Z,87.10
2019-01-11T04:13:05.461Z,87.20
2019-01-11T04:14:08.229Z,87.10
2019-01-11T04:15:05.354Z,87.20
2019-01-11T04:16:07.934Z,87.20
2019-01-11T04:17:05.990Z,87.20
2019-01-11T04:18:07.642Z,87.20
2019-01-11T04:19:05.631Z,87.20
2019-01-11T04:20:05.736Z,87.20
2019-01-11T04:21:06.025Z,87.20
2019-01-11T04:22:10.692Z,87.30
2019-01-11T04:23:05.797Z,87.30
2019-01-11T04:24:08.486Z,87.30
2019-01-11T04:25:05.633Z,87.30
2019-01-11T04:26:08.283Z,87.30
2019-01-11T04:27:07.839Z,87.30
2019-01-11T04:28:05.826Z,87.30
2019-01-11T04:29:06.108Z,87.30
2019-01-11T04:30:05.711Z,87.30
2019-01-11T04:31:05.929Z,87.40
2019-01-11T04:32:07.605Z,87.40
2019-01-11T04:33:05.610Z,87.40
2019-01-11T04:34:05.746Z,87.40
2019-01-11T04:35:13.477Z,87.40
2019-01-11T04:36:05.670Z,87.40
2019-01-11T04:37:05.918Z,87.40
2019-01-11T04:38:07.514Z,87.40
2019-01-11T04:39:05.541Z,87.40
2019-01-11T04:40:09.573Z,87.40
2019-01-11T04:41:05.514Z,87.50
2019-01-11T04:42:05.620Z,87.50
2019-01-11T04:43:05.866Z,87.60
2019-01-11T04:44:08.612Z,87.60
2019-01-11T04:45:08.188Z,87.60
2019-01-11T04:46:05.276Z,87.60
2019-01-11T04:47:07.964Z,87.60
2019-01-11T04:48:06.017Z,87.60
2019-01-11T04:49:05.136Z,87.60
2019-01-11T04:50:09.921Z,87.60
2019-01-11T04:51:05.150Z,87.60
2019-01-11T04:52:07.727Z,87.60
2019-01-11T04:53:06.052Z,87.70
2019-01-11T04:54:05.251Z,87.70
2019-01-11T04:55:08.063Z,87.70
2019-01-11T04:56:05.148Z,87.70
2019-01-11T04:57:05.236Z,87.70
2019-01-11T04:58:15.400Z,87.80
2019-01-11T04:59:05.519Z,87.80
2019-01-11T05:00:05.813Z,87.80
2019-01-11T05:01:05.937Z,87.90
2019-01-11T05:02:05.071Z,87.80
2019-01-11T05:03:05.229Z,87.80
2019-01-11T05:04:10.372Z,87.90
2019-01-11T05:05:05.384Z,87.90
2019-01-11T05:06:05.468Z,87.90
2019-01-11T05:07:08.057Z,88.00
2019-01-11T05:08:05.032Z,88.00
2019-01-11T05:09:07.745Z,87.90
2019-01-11T05:10:05.922Z,87.90
2019-01-11T05:11:05.121Z,87.90
2019-01-11T05:12:05.237Z,88.10
2019-01-11T05:13:05.465Z,88.00
2019-01-11T05:14:08.213Z,88.10
2019-01-11T05:15:07.733Z,87.90
2019-01-11T05:16:05.787Z,88.00
2019-01-11T05:17:05.921Z,88.10
2019-01-11T05:18:07.726Z,88.20
2019-01-11T05:19:08.288Z,88.20
2019-01-11T05:20:05.267Z,88.20
2019-01-11T05:21:05.507Z,88.20
2019-01-11T05:22:05.733Z,88.20
2019-01-11T05:23:05.886Z,88.20
2019-01-11T05:24:06.313Z,88.30
2019-01-11T05:25:08.310Z,88.30
2019-01-11T05:26:05.305Z,88.30
2019-01-11T05:27:05.456Z,88.30
2019-01-11T05:28:05.694Z,88.30
2019-01-11T05:29:05.884Z,88.40
2019-01-11T05:30:08.478Z,88.40
2019-01-11T05:31:05.606Z,88.40
2019-01-11T05:32:05.848Z,88.50
2019-01-11T05:33:07.601Z,88.40
2019-01-11T05:34:05.587Z,88.50
2019-01-11T05:35:05.678Z,88.50
2019-01-11T05:36:05.989Z,88.50
2019-01-11T05:37:05.173Z,88.50
2019-01-11T05:38:07.915Z,88.50
2019-01-11T05:39:05.889Z,88.50
2019-01-11T05:40:06.044Z,88.50
2019-01-11T05:41:05.277Z,88.60
2019-01-11T05:42:05.427Z,88.60
2019-01-11T05:43:05.534Z,88.60
2019-01-11T05:44:05.732Z,88.60
2019-01-11T05:45:05.988Z,88.60
2019-01-11T05:46:07.686Z,88.60
2019-01-11T05:47:08.177Z,88.60
2019-01-11T05:48:05.238Z,88.70
2019-01-11T05:49:05.461Z,88.70
2019-01-11T05:50:05.528Z,88.70
2019-01-11T05:51:05.585Z,88.80
2019-01-11T05:52:08.362Z,88.80
2019-01-11T05:53:07.838Z,88.70
2019-01-11T05:54:05.846Z,88.80
2019-01-11T05:55:08.681Z,88.80
2019-01-11T05:56:05.624Z,88.80
2019-01-11T05:57:05.736Z,88.70
2019-01-11T05:58:05.874Z,88.80
2019-01-11T05:59:08.494Z,88.80
2019-01-11T06:00:05.432Z,88.90
2019-01-11T06:01:05.472Z,88.80
2019-01-11T06:02:08.238Z,88.90
2019-01-11T06:03:07.836Z,88.90
2019-01-11T06:04:06.036Z,88.90
2019-01-11T06:05:05.274Z,88.90
2019-01-11T06:06:12.616Z,88.90
2019-01-11T06:07:08.113Z,88.90
2019-01-11T06:08:05.049Z,88.90
2019-01-11T06:09:05.160Z,88.90
2019-01-11T06:10:05.277Z,88.90
2019-01-11T06:11:05.400Z,89.00
2019-01-11T06:12:08.137Z,89.00
2019-01-11T06:13:05.112Z,89.00
2019-01-11T06:14:07.947Z,89.00
2019-01-11T06:15:06.006Z,89.00
2019-01-11T06:16:05.106Z,89.00
2019-01-11T06:17:05.200Z,89.00
2019-01-11T06:18:07.790Z,89.00
2019-01-11T06:19:05.898Z,89.10
2019-01-11T06:20:07.647Z,89.10
2019-01-11T06:21:05.560Z,89.10
2019-01-11T06:22:08.178Z,89.20
2019-01-11T06:23:07.724Z,89.10
2019-01-11T06:24:08.334Z,89.20
2019-01-11T06:25:07.858Z,89.20
2019-01-11T06:26:06.033Z,89.20
2019-01-11T06:27:07.630Z,89.20
2019-01-11T06:28:05.581Z,89.10
2019-01-11T06:29:05.646Z,89.30
2019-01-11T06:30:05.814Z,89.30
2019-01-11T06:31:08.575Z,89.40
2019-01-11T06:32:05.530Z,89.40
2019-01-11T06:33:10.763Z,89.40
2019-01-11T06:34:05.801Z,89.40
2019-01-11T06:35:08.509Z,89.50
2019-01-11T06:36:05.512Z,89.50
2019-01-11T06:37:05.685Z,89.40
2019-01-11T06:38:05.822Z,89.50
2019-01-11T06:39:05.962Z,89.40
2019-01-11T06:40:05.124Z,89.50
2019-01-11T06:41:05.184Z,89.50
2019-01-11T06:42:05.253Z,89.50
2019-01-11T06:43:05.434Z,89.50
2019-01-11T06:44:05.892Z,89.50
2019-01-11T06:45:06.205Z,89.60
2019-01-11T06:46:05.578Z,89.60
2019-01-11T06:47:05.717Z,89.60
2019-01-11T06:48:05.882Z,89.60
2019-01-11T06:49:06.001Z,89.60
2019-01-11T06:50:05.086Z,89.70
2019-01-11T06:51:07.956Z,89.80
2019-01-11T06:52:05.947Z,89.80
2019-01-11T06:53:05.142Z,89.80
2019-01-11T06:54:07.740Z,89.80
2019-01-11T06:55:05.868Z,89.80
2019-01-11T06:56:06.091Z,89.90
2019-01-11T06:57:05.895Z,89.80
2019-01-11T06:58:11.138Z,90.00
2019-01-11T06:59:10.220Z,90.00
2019-01-11T07:00:07.666Z,90.00
2019-01-11T07:01:05.722Z,90.10
2019-01-11T07:02:05.779Z,90.00
2019-01-11T07:03:13.513Z,90.10
2019-01-11T07:04:05.637Z,90.10
2019-01-11T07:05:11.026Z,90.10
2019-01-11T07:06:05.026Z,90.10
2019-01-11T07:07:05.234Z,90.10
2019-01-11T07:08:05.417Z,90.00
2019-01-11T07:09:05.473Z,90.10
2019-01-11T07:10:08.208Z,90.10
2019-01-11T07:11:05.183Z,90.10
2019-01-11T07:12:05.342Z,90.10
2019-01-11T07:13:10.585Z,90.10
2019-01-11T07:14:08.082Z,90.10
2019-01-11T07:15:05.201Z,90.10
2019-01-11T07:16:07.882Z,90.10
2019-01-11T07:17:08.482Z,90.10
2019-01-11T07:18:05.473Z,90.10
2019-01-11T07:19:05.676Z,90.10
2019-01-11T07:20:06.261Z,90.10
2019-01-11T07:21:07.914Z,90.10
2019-01-11T07:22:06.020Z,90.10
2019-01-11T07:23:10.169Z,90.10
2019-01-11T07:24:05.187Z,90.10
2019-01-11T07:25:05.406Z,90.10
2019-01-11T07:26:05.533Z,90.10
2019-01-11T07:27:08.189Z,90.20
2019-01-11T07:28:05.228Z,90.20
2019-01-11T07:29:07.957Z,90.10
2019-01-11T07:30:08.414Z,90.20
2019-01-11T07:31:11.756Z,90.20
2019-01-11T07:32:05.974Z,90.20
2019-01-11T07:33:05.100Z,90.20
2019-01-11T07:34:05.374Z,90.30
2019-01-11T07:35:08.390Z,90.20
2019-01-11T07:36:05.422Z,90.20
2019-01-11T07:37:05.515Z,90.30
2019-01-11T07:38:05.736Z,90.20
2019-01-11T07:39:08.388Z,90.30
2019-01-11T07:40:05.323Z,90.30
2019-01-11T07:41:07.941Z,90.30
2019-01-11T07:42:08.499Z,90.30
2019-01-11T07:43:05.508Z,90.30
2019-01-11T07:44:08.182Z,90.30
2019-01-11T07:45:07.720Z,90.20
2019-01-11T07:46:05.632Z,90.20
2019-01-11T07:47:08.334Z,90.30
2019-01-11T07:48:05.379Z,90.30
2019-01-11T07:49:08.045Z,90.20
2019-01-11T07:50:06.157Z,90.20
2019-01-11T07:51:05.305Z,90.20
2019-01-11T07:52:08.022Z,90.20
2019-01-11T07:53:05.120Z,90.20
2019-01-11T07:54:05.222Z,90.10
2019-01-11T07:55:05.341Z,90.10
2019-01-11T07:56:05.581Z,90.10
2019-01-11T07:57:05.754Z,90.10
2019-01-11T07:58:06.089Z,90.10
2019-01-11T07:59:05.218Z,90.00
2019-01-11T08:00:05.420Z,90.00
2019-01-11T08:01:05.586Z,90.00
2019-01-11T08:02:05.770Z,90.00
2019-01-11T08:03:08.520Z,90.00
2019-01-11T08:04:08.168Z,90.00
2019-01-11T08:05:05.097Z,90.00
2019-01-11T08:06:05.315Z,90.00
2019-01-11T08:07:08.026Z,90.00
2019-01-11T08:08:06.035Z,90.00
2019-01-11T08:09:05.221Z,89.90
2019-01-11T08:10:05.313Z,90.10
2019-01-11T08:11:05.483Z,90.10
2019-01-11T08:12:08.191Z,90.00
2019-01-11T08:13:05.228Z,90.00
2019-01-11T08:14:06.910Z,90.00
2019-01-11T08:15:07.587Z,90.10
2019-01-11T08:16:08.068Z,90.00
2019-01-11T08:17:07.548Z,90.00
2019-01-11T08:18:10.689Z,90.10
2019-01-11T08:19:05.687Z,90.20
2019-01-11T08:20:05.789Z,90.10
2019-01-11T08:21:08.373Z,90.20
2019-01-11T08:22:05.531Z,90.20
2019-01-11T08:23:05.655Z,90.20
2019-01-11T08:24:05.807Z,90.30
2019-01-11T08:25:05.889Z,90.30
2019-01-11T08:26:05.024Z,90.30
2019-01-11T08:27:05.429Z,90.30
2019-01-11T08:28:05.541Z,90.30
2019-01-11T08:29:05.642Z,90.30
2019-01-11T08:30:07.790Z,90.30
2019-01-11T08:31:05.964Z,90.30
2019-01-11T08:32:07.921Z,90.30
2019-01-11T08:33:05.948Z,90.30
2019-01-11T08:34:08.324Z,90.30
2019-01-11T08:35:05.366Z,90.40
2019-01-11T08:36:05.557Z,90.40
2019-01-11T08:37:05.774Z,90.40
2019-01-11T08:38:05.862Z,90.40
2019-01-11T08:39:06.113Z,90.40
2019-01-11T08:40:05.457Z,90.40
2019-01-11T08:41:08.199Z,90.40
2019-01-11T08:42:05.246Z,90.40
2019-01-11T08:43:05.413Z,90.40
2019-01-11T08:44:08.132Z,90.40
2019-01-11T08:45:07.607Z,90.50
2019-01-11T08:46:05.643Z,90.50
2019-01-11T08:47:05.791Z,90.50
2019-01-11T08:48:05.935Z,90.60
2019-01-11T08:49:05.054Z,90.50
2019-01-11T08:50:05.184Z,90.60
2019-01-11T08:51:05.311Z,90.60
2019-01-11T08:52:05.414Z,90.50
2019-01-11T08:53:05.526Z,90.60
2019-01-11T08:54:05.773Z,90.60
2019-01-11T08:55:05.883Z,90.60
2019-01-11T08:56:08.951Z,90.60
2019-01-11T08:57:07.613Z,90.60
2019-01-11T08:58:08.236Z,90.60
2019-01-11T08:59:07.859Z,90.60
2019-01-11T09:00:08.488Z,90.60
2019-01-11T09:01:05.570Z,90.60
2019-01-11T09:02:05.652Z,90.50
2019-01-11T09:03:08.267Z,90.60
2019-01-11T09:04:05.377Z,90.60
2019-01-11T09:05:05.658Z,90.50
2019-01-11T09:06:05.892Z,90.50
2019-01-11T09:07:08.611Z,90.60
2019-01-11T09:08:05.630Z,90.60
2019-01-11T09:09:08.377Z,90.60
2019-01-11T09:10:05.405Z,90.60
2019-01-11T09:11:05.683Z,90.60
2019-01-11T09:12:08.382Z,90.60
2019-01-11T09:13:05.476Z,90.60
2019-01-11T09:14:05.580Z,90.60
2019-01-11T09:15:05.845Z,90.70
2019-01-11T09:16:08.642Z,90.60
2019-01-11T09:17:05.739Z,90.60
2019-01-11T09:18:05.906Z,90.60
2019-01-11T09:19:05.035Z,90.60
2019-01-11T09:20:05.103Z,90.60
2019-01-11T09:21:11.404Z,90.60
2019-01-11T09:22:08.086Z,90.60
2019-01-11T09:23:05.067Z,90.60
2019-01-11T09:24:07.708Z,90.60
2019-01-11T09:25:05.692Z,90.70
2019-01-11T09:26:05.949Z,90.60
2019-01-11T09:27:07.767Z,90.70
2019-01-11T09:28:08.474Z,90.70
2019-01-11T09:29:05.513Z,90.70
2019-01-11T09:30:06.070Z,90.60
2019-01-11T09:31:07.778Z,90.60
2019-01-11T09:32:05.744Z,90.60
2019-01-11T09:33:08.310Z,90.60
2019-01-11T09:34:05.430Z,90.70
2019-01-11T09:35:08.153Z,90.60
2019-01-11T09:36:05.186Z,90.70
2019-01-11T09:37:05.292Z,90.60
2019-01-11T09:38:08.015Z,90.80
2019-01-11T09:39:05.040Z,90.80
2019-01-11T09:40:05.119Z,90.70
2019-01-11T09:41:07.716Z,90.60
2019-01-11T09:42:05.648Z,90.70
2019-01-11T09:43:05.815Z,90.60
2019-01-11T09:44:08.592Z,90.60
2019-01-11T09:45:05.573Z,90.60
2019-01-11T09:46:08.235Z,90.50
2019-01-11T09:47:05.406Z,90.50
2019-01-11T09:48:08.026Z,90.50
2019-01-11T09:49:07.639Z,90.50
2019-01-11T09:50:05.629Z,90.50
2019-01-11T09:51:05.746Z,90.50
2019-01-11T09:52:08.349Z,90.50
2019-01-11T09:53:05.349Z,90.50
2019-01-11T09:54:05.448Z,90.50
2019-01-11T09:55:08.059Z,90.50
2019-01-11T09:56:07.595Z,90.50
2019-01-11T09:57:08.063Z,90.50
2019-01-11T09:58:05.098Z,90.60
2019-01-11T09:59:05.150Z,90.50
2019-01-11T10:00:05.414Z,90.60
2019-01-11T10:01:05.574Z,90.60
2019-01-11T10:02:08.265Z,90.60
2019-01-11T10:03:05.261Z,90.60
2019-01-11T10:04:05.464Z,90.60
2019-01-11T10:05:05.638Z,90.70
2019-01-11T10:06:06.486Z,90.70
2019-01-11T10:07:05.548Z,90.70
2019-01-11T10:08:05.678Z,90.70
2019-01-11T10:09:05.958Z,90.70
2019-01-11T10:10:05.107Z,90.70
2019-01-11T10:11:05.251Z,90.70
2019-01-11T10:12:05.396Z,90.70
2019-01-11T10:13:05.486Z,90.60
2019-01-11T10:14:10.768Z,90.60
2019-01-11T10:15:05.879Z,90.60
2019-01-11T10:16:05.110Z,90.60
2019-01-11T10:17:05.326Z,90.50
2019-01-11T10:18:05.417Z,90.50
2019-01-11T10:19:05.692Z,90.70
2019-01-11T10:20:05.858Z,90.50
2019-01-11T10:21:05.953Z,90.70
2019-01-11T10:22:05.028Z,90.70
2019-01-11T10:23:05.277Z,90.70
2019-01-11T10:24:05.407Z,90.70
2019-01-11T10:25:05.573Z,90.60
2019-01-11T10:26:08.237Z,90.70
2019-01-11T10:27:05.226Z,90.70
2019-01-11T10:28:05.361Z,90.70
2019-01-11T10:29:05.551Z,90.70
2019-01-11T10:30:07.554Z,90.70
2019-01-11T10:31:08.034Z,90.70
2019-01-11T10:32:11.133Z,90.70
2019-01-11T10:33:05.101Z,90.70
2019-01-11T10:34:05.252Z,90.70
2019-01-11T10:35:07.885Z,90.80
2019-01-11T10:36:08.462Z,90.80
2019-01-11T10:37:08.060Z,90.80
2019-01-11T10:38:05.049Z,90.80
2019-01-11T10:39:05.161Z,90.70
2019-01-11T10:40:05.346Z,90.70
2019-01-11T10:41:05.434Z,90.70
2019-01-11T10:42:05.685Z,90.60
2019-01-11T10:43:08.261Z,90.50
2019-01-11T10:44:05.368Z,90.60
2019-01-11T10:45:05.496Z,90.60
2019-01-11T10:46:08.075Z,90.50
2019-01-11T10:47:05.087Z,90.50
2019-01-11T10:48:05.188Z,90.50
2019-01-11T10:49:05.255Z,90.40
2019-01-11T10:50:05.379Z,90.50
2019-01-11T10:51:05.598Z,90.40
2019-01-11T10:52:05.885Z,90.40
2019-01-11T10:53:05.065Z,90.40
2019-01-11T10:54:05.190Z,90.40
2019-01-11T10:55:05.284Z,90.30
2019-01-11T10:56:07.891Z,90.40
2019-01-11T10:57:08.406Z,90.40
2019-01-11T10:58:05.346Z,90.30
2019-01-11T10:59:05.416Z,90.40
2019-01-11T11:00:05.051Z,90.40
2019-01-11T11:01:05.162Z,90.30
2019-01-11T11:02:05.308Z,90.20
2019-01-11T11:03:08.015Z,90.30
2019-01-11T11:04:05.071Z,90.40
2019-01-11T11:05:05.257Z,90.50
2019-01-11T11:06:05.560Z,90.40
2019-01-11T11:07:05.847Z,90.40
2019-01-11T11:08:11.156Z,90.40
2019-01-11T11:09:05.195Z,90.40
2019-01-11T11:10:07.814Z,90.50
2019-01-11T11:11:08.405Z,90.40
2019-01-11T11:12:05.402Z,90.40
2019-01-11T11:13:05.561Z,90.40
2019-01-11T11:14:05.723Z,90.40
2019-01-11T11:15:05.928Z,90.50
2019-01-11T11:16:05.155Z,90.50
2019-01-11T11:17:05.384Z,90.50
2019-01-11T11:18:08.153Z,90.50
2019-01-11T11:19:05.114Z,90.60
2019-01-11T11:20:05.247Z,90.50
2019-01-11T11:21:07.865Z,90.50
2019-01-11T11:22:05.942Z,90.50
2019-01-11T11:23:05.094Z,90.50
2019-01-11T11:24:07.790Z,90.50
2019-01-11T11:25:05.851Z,90.50
2019-01-11T11:26:05.981Z,90.50
2019-01-11T11:27:05.175Z,90.50
2019-01-11T11:28:07.833Z,90.50
2019-01-11T11:29:08.474Z,90.40
2019-01-11T11:30:05.532Z,90.40
2019-01-11T11:31:05.732Z,90.50
2019-01-11T11:32:05.862Z,90.50
2019-01-11T11:33:06.039Z,90.40
2019-01-11T11:34:05.545Z,90.40
2019-01-11T11:35:05.692Z,90.40
2019-01-11T11:36:08.336Z,90.40
2019-01-11T11:37:07.874Z,90.40
2019-01-11T11:38:06.016Z,90.40
2019-01-11T11:39:07.686Z,90.30
2019-01-11T11:40:05.723Z,90.30
2019-01-11T11:41:05.759Z,90.20
2019-01-11T11:42:11.036Z,90.20
2019-01-11T11:43:05.084Z,90.10
2019-01-11T11:44:05.457Z,90.00
2019-01-11T11:45:08.072Z,90.10
2019-01-11T11:46:07.643Z,90.10
2019-01-11T11:47:10.696Z,90.20
2019-01-11T11:48:08.129Z,90.10
2019-01-11T11:49:05.130Z,90.00
2019-01-11T11:50:07.858Z,90.10
2019-01-11T11:51:08.358Z,90.20
2019-01-11T11:52:07.922Z,90.20
2019-01-11T11:53:05.998Z,90.20
2019-01-11T11:54:05.211Z,90.00
2019-01-11T11:55:10.498Z,89.90
2019-01-11T11:56:05.615Z,89.90
2019-01-11T11:57:05.720Z,89.80
2019-01-11T11:58:05.895Z,89.70
2019-01-11T11:59:07.591Z,89.70
2019-01-11T12:00:05.674Z,89.70
2019-01-11T12:01:05.798Z,89.70
2019-01-11T12:02:05.917Z,89.60
2019-01-11T12:03:05.092Z,89.60
2019-01-11T12:04:05.228Z,89.50
2019-01-11T12:05:05.509Z,89.50
2019-01-11T12:06:08.205Z,89.50
2019-01-11T12:07:08.143Z,89.50
2019-01-11T12:08:07.850Z,89.40
2019-01-11T12:09:05.950Z,89.40
2019-01-11T12:10:05.217Z,89.40
2019-01-11T12:11:07.900Z,89.40
2019-01-11T12:12:08.606Z,89.50
2019-01-11T12:13:05.738Z,89.50
2019-01-11T12:14:08.357Z,89.50
2019-01-11T12:15:05.325Z,89.50
2019-01-11T12:16:05.413Z,89.50
2019-01-11T12:17:05.513Z,89.50
2019-01-11T12:18:08.203Z,89.60
2019-01-11T12:19:05.215Z,89.60
2019-01-11T12:20:07.863Z,89.50
2019-01-11T12:21:05.813Z,89.50
2019-01-11T12:22:08.499Z,89.50
2019-01-11T12:23:08.122Z,89.50
2019-01-11T12:24:05.100Z,89.50
2019-01-11T12:25:10.387Z,89.50
2019-01-11T12:26:05.439Z,89.60
2019-01-11T12:27:05.540Z,89.50
2019-01-11T12:28:08.150Z,89.40
2019-01-11T12:29:10.261Z,89.40
2019-01-11T12:30:07.860Z,89.30
2019-01-11T12:31:06.058Z,89.30
2019-01-11T12:32:05.174Z,89.30
2019-01-11T12:33:07.789Z,89.20
2019-01-11T12:34:08.294Z,89.20
2019-01-11T12:35:05.395Z,89.20
2019-01-11T12:36:08.007Z,89.20
2019-01-11T12:37:08.575Z,89.20
2019-01-11T12:38:14.088Z,89.20
2019-01-11T12:39:05.805Z,89.20
2019-01-11T12:40:05.949Z,89.20
2019-01-11T12:41:05.104Z,89.20
2019-01-11T12:42:05.131Z,89.20
2019-01-11T12:43:07.684Z,89.20
2019-01-11T12:44:05.626Z,89.20
2019-01-11T12:45:10.798Z,89.30
2019-01-11T12:46:05.908Z,89.30
2019-01-11T12:47:05.130Z,89.30
2019-01-11T12:48:05.261Z,89.30
2019-01-11T12:49:05.321Z,89.30
2019-01-11T12:50:08.220Z,89.40
2019-01-11T12:51:05.210Z,89.40
2019-01-11T12:52:05.271Z,89.30